Time;durP1;ratioP1;P1;durP2;ratioP2;P2;SDS_P1;SDS_P2;PMS_P1;PMS_P2;Temp;Humidity;BMP_temperature;BMP_pressure;BME280_temperature;BME280_humidity;BME280_pressure;Samples;Min_cycle;Max_cycle;Signal;HPM_P1;HPM_P2
2022/11/08 00:01:32;;;;;;;1.20;1.20;;;;;;;;;;4944800;28;20812;-62
2022/11/08 00:03:58;;;;;;;1.30;1.30;;;;;;;;;;4940777;28;20222;-62
2022/11/08 00:14:39;;;;;;;1.23;1.23;;;;;;;;;;4937096;28;20245;-65
2022/11/08 00:17:04;;;;;;;1.30;1.30;;;;;;;;;;4945091;28;20234;-64
2022/11/08 00:19:30;;;;;;;1.10;1.10;;;;;;;;;;4960847;28;20229;-62
2022/11/08 00:21:56;;;;;;;1.30;1.30;;;;;;;;;;4949984;28;20231;-62
2022/11/08 00:24:22;;;;;;;1.40;1.40;;;;;;;;;;4923075;28;20263;-63
2022/11/08 00:26:48;;;;;;;1.23;1.23;;;;;;;;;;4947338;28;20236;-63
2022/11/08 00:29:14;;;;;;;1.60;1.60;;;;;;;;;;4950029;28;20244;-62
2022/11/08 00:31:40;;;;;;;1.20;1.20;;;;;;;;;;4936786;28;20249;-62
2022/11/08 00:34:06;;;;;;;1.20;1.20;;;;;;;;;;4959478;28;20653;-63
2022/11/08 00:36:32;;;;;;;1.20;1.20;;;;;;;;;;4954528;28;20231;-64
2022/11/08 00:38:58;;;;;;;1.10;1.10;;;;;;;;;;4944569;28;20222;-63
2022/11/08 00:41:24;;;;;;;1.30;1.30;;;;;;;;;;4948991;28;20227;-62
2022/11/08 00:43:49;;;;;;;1.27;1.27;;;;;;;;;;4953282;28;20226;-65
2022/11/08 00:46:15;;;;;;;1.10;1.10;;;;;;;;;;4947949;28;20309;-62
2022/11/08 00:48:41;;;;;;;1.30;1.30;;;;;;;;;;4948453;28;20231;-65
2022/11/08 00:51:08;;;;;;;1.37;1.37;;;;;;;;;;4958581;28;20387;-65
2022/11/08 00:53:35;;;;;;;1.30;1.30;;;;;;;;;;4967225;28;20290;-62
2022/11/08 00:56:02;;;;;;;1.20;1.20;;;;;;;;;;4956511;28;20657;-65
2022/11/08 00:58:28;;;;;;;1.40;1.40;;;;;;;;;;4942007;28;20782;-63
2022/11/08 01:00:54;;;;;;;1.20;1.20;;;;;;;;;;4938745;28;20699;-65
2022/11/08 01:03:20;;;;;;;1.20;1.20;;;;;;;;;;4942782;28;20713;-64
2022/11/08 01:05:49;;;;;;;1.23;1.23;;;;;;;;;;4920461;28;20658;-63
2022/11/08 01:08:15;;;;;;;1.17;1.17;;;;;;;;;;4946689;28;20239;-62
2022/11/08 01:10:41;;;;;;;1.40;1.40;;;;;;;;;;4937654;28;20258;-63
2022/11/08 01:13:07;;;;;;;1.20;1.20;;;;;;;;;;4932214;28;20238;-66
2022/11/08 01:15:36;;;;;;;1.30;1.30;;;;;;;;;;4942533;28;20227;-63
2022/11/08 01:18:03;;;;;;;1.30;1.30;;;;;;;;;;4935610;28;20220;-64
2022/11/08 01:20:29;;;;;;;1.37;1.37;;;;;;;;;;4948529;28;20277;-64
2022/11/08 01:22:55;;;;;;;1.20;1.20;;;;;;;;;;4931487;28;20536;-63
2022/11/08 01:25:20;;;;;;;1.40;1.40;;;;;;;;;;4941986;28;20773;-64
2022/11/08 01:27:46;;;;;;;1.20;1.20;;;;;;;;;;4934921;28;20316;-64
2022/11/08 01:30:12;;;;;;;1.20;1.20;;;;;;;;;;4940680;28;20320;-64
2022/11/08 01:32:38;;;;;;;1.20;1.20;;;;;;;;;;4939104;28;20219;-62
2022/11/08 01:35:04;;;;;;;1.27;1.27;;;;;;;;;;4947820;28;20297;-62
2022/11/08 01:37:30;;;;;;;1.57;1.57;;;;;;;;;;4939015;28;20615;-65
2022/11/08 01:39:56;;;;;;;1.47;1.47;;;;;;;;;;4947136;28;20293;-63
2022/11/08 01:42:28;;;;;;;1.20;1.20;;;;;;;;;;4935831;28;20231;-62
2022/11/08 01:45:04;;;;;;;1.27;1.27;;;;;;;;;;4944323;28;20582;-62
2022/11/08 01:47:30;;;;;;;1.10;1.10;;;;;;;;;;4935354;28;20265;-62
2022/11/08 01:49:57;;;;;;;1.30;1.30;;;;;;;;;;4935972;28;21104;-62
2022/11/08 01:52:25;;;;;;;1.33;1.33;;;;;;;;;;4943041;28;20229;-63
2022/11/08 01:54:54;;;;;;;1.30;1.30;;;;;;;;;;4938826;28;20239;-63
2022/11/08 01:57:25;;;;;;;1.53;1.53;;;;;;;;;;4942052;28;20219;-62
2022/11/08 01:59:52;;;;;;;1.20;1.20;;;;;;;;;;4928424;28;20286;-63
2022/11/08 02:02:18;;;;;;;1.00;1.00;;;;;;;;;;4924605;28;20346;-66
2022/11/08 02:04:44;;;;;;;1.20;1.20;;;;;;;;;;4955714;28;20239;-66
2022/11/08 02:07:11;;;;;;;1.50;1.50;;;;;;;;;;4958662;28;20250;-66
2022/11/08 02:09:37;;;;;;;1.40;1.40;;;;;;;;;;4955766;28;23566;-66
2022/11/08 02:12:03;;;;;;;1.27;1.27;;;;;;;;;;4936109;28;20233;-66
2022/11/08 02:14:29;;;;;;;1.30;1.30;;;;;;;;;;4930992;28;20609;-66
2022/11/08 02:16:55;;;;;;;1.30;1.30;;;;;;;;;;4953298;28;20234;-65
2022/11/08 02:19:40;;;;;;;1.40;1.40;;;;;;;;;;4957128;28;20230;-65
2022/11/08 02:22:09;;;;;;;1.30;1.30;;;;;;;;;;4933913;28;21116;-66
2022/11/08 02:24:35;;;;;;;1.40;1.40;;;;;;;;;;4947483;28;20223;-66
2022/11/08 02:27:01;;;;;;;1.27;1.27;;;;;;;;;;4939727;28;20230;-66
2022/11/08 02:29:31;;;;;;;1.23;1.23;;;;;;;;;;4950677;28;20712;-66
2022/11/08 02:31:57;;;;;;;1.40;1.40;;;;;;;;;;4945045;28;20222;-65
2022/11/08 02:34:24;;;;;;;1.40;1.40;;;;;;;;;;4950163;28;20530;-65
2022/11/08 02:36:50;;;;;;;1.30;1.30;;;;;;;;;;4924741;28;22297;-66
2022/11/08 02:39:16;;;;;;;1.20;1.20;;;;;;;;;;4947190;28;20245;-66
2022/11/08 02:41:42;;;;;;;1.10;1.10;;;;;;;;;;4945447;28;20210;-66
2022/11/08 02:44:08;;;;;;;1.20;1.20;;;;;;;;;;4951998;28;20223;-66
2022/11/08 02:46:34;;;;;;;1.50;1.50;;;;;;;;;;4941258;28;20639;-66
2022/11/08 02:49:00;;;;;;;1.20;1.20;;;;;;;;;;4940763;28;20256;-66
2022/11/08 02:51:26;;;;;;;1.20;1.20;;;;;;;;;;4950454;28;20226;-66
2022/11/08 02:53:52;;;;;;;1.30;1.30;;;;;;;;;;4943227;28;20211;-66
2022/11/08 02:56:18;;;;;;;1.40;1.40;;;;;;;;;;4952481;28;20653;-66
2022/11/08 02:58:43;;;;;;;1.43;1.43;;;;;;;;;;4949146;28;20845;-66
2022/11/08 03:01:09;;;;;;;1.30;1.30;;;;;;;;;;4944914;28;20233;-66
2022/11/08 03:03:35;;;;;;;1.40;1.40;;;;;;;;;;4945555;28;20246;-65
2022/11/08 03:06:01;;;;;;;1.20;1.20;;;;;;;;;;4953072;28;20783;-66
2022/11/08 03:08:27;;;;;;;1.57;1.57;;;;;;;;;;4936531;28;20318;-66
2022/11/08 03:10:53;;;;;;;1.20;1.20;;;;;;;;;;4949081;28;20231;-65
2022/11/08 03:13:19;;;;;;;1.30;1.30;;;;;;;;;;4948256;28;20226;-66
2022/11/08 03:15:45;;;;;;;1.40;1.40;;;;;;;;;;4938813;28;20232;-66
2022/11/08 03:18:11;;;;;;;1.30;1.30;;;;;;;;;;4951627;28;20781;-65
2022/11/08 03:20:37;;;;;;;1.30;1.30;;;;;;;;;;4956740;28;20227;-66
2022/11/08 03:23:04;;;;;;;1.23;1.23;;;;;;;;;;4954560;28;20260;-65
2022/11/08 03:25:30;;;;;;;1.43;1.43;;;;;;;;;;4950447;28;20293;-65
2022/11/08 03:28:00;;;;;;;1.20;1.20;;;;;;;;;;4947808;28;20274;-66
2022/11/08 03:30:26;;;;;;;1.30;1.30;;;;;;;;;;4931757;28;20242;-65
2022/11/08 03:32:52;;;;;;;1.40;1.40;;;;;;;;;;4941545;28;20227;-65
2022/11/08 03:35:18;;;;;;;1.30;1.30;;;;;;;;;;4955079;28;20229;-66
2022/11/08 03:37:56;;;;;;;1.43;1.43;;;;;;;;;;4956307;28;20235;-65
2022/11/08 03:40:22;;;;;;;1.30;1.30;;;;;;;;;;4935388;28;20227;-66
2022/11/08 03:42:48;;;;;;;1.50;1.50;;;;;;;;;;4938237;28;21138;-66
2022/11/08 03:45:14;;;;;;;1.30;1.30;;;;;;;;;;4948486;28;20226;-66
2022/11/08 03:47:41;;;;;;;1.30;1.30;;;;;;;;;;4917161;28;21227;-66
2022/11/08 03:50:07;;;;;;;1.30;1.30;;;;;;;;;;4921515;28;20237;-65
2022/11/08 03:52:43;;;;;;;1.20;1.20;;;;;;;;;;4940733;28;20682;-65
2022/11/08 03:55:09;;;;;;;1.33;1.33;;;;;;;;;;4926502;28;20584;-66
2022/11/08 03:57:35;;;;;;;1.20;1.20;;;;;;;;;;4941743;28;20235;-65
2022/11/08 04:00:01;;;;;;;1.23;1.23;;;;;;;;;;4931742;28;20231;-65
2022/11/08 04:02:27;;;;;;;1.30;1.30;;;;;;;;;;4935266;28;20710;-66
2022/11/08 04:04:53;;;;;;;1.20;1.20;;;;;;;;;;4944360;28;20374;-65
2022/11/08 04:07:19;;;;;;;1.10;1.10;;;;;;;;;;4945915;28;20773;-66
2022/11/08 04:09:45;;;;;;;1.40;1.40;;;;;;;;;;4937858;28;20341;-65
2022/11/08 04:15:14;;;;;;;1.50;1.50;;;;;;;;;;4927051;28;20225;-66
2022/11/08 04:23:09;;;;;;;1.60;1.60;;;;;;;;;;4936643;28;20376;-66
2022/11/08 04:25:35;;;;;;;1.33;1.33;;;;;;;;;;4929767;28;20246;-65
2022/11/08 04:28:01;;;;;;;1.40;1.40;;;;;;;;;;4940149;28;20279;-65
2022/11/08 04:30:27;;;;;;;1.40;1.40;;;;;;;;;;4932644;28;20293;-65
2022/11/08 04:32:53;;;;;;;1.47;1.47;;;;;;;;;;4944078;28;20235;-65
2022/11/08 04:35:19;;;;;;;1.40;1.40;;;;;;;;;;4936121;28;21616;-65
2022/11/08 04:37:45;;;;;;;1.30;1.30;;;;;;;;;;4951610;28;20731;-65
2022/11/08 04:40:11;;;;;;;1.40;1.40;;;;;;;;;;4945559;28;20217;-65
2022/11/08 04:42:37;;;;;;;1.50;1.50;;;;;;;;;;4943391;28;20280;-65
2022/11/08 04:45:03;;;;;;;1.23;1.23;;;;;;;;;;4944701;28;20621;-66
2022/11/08 04:47:29;;;;;;;1.40;1.40;;;;;;;;;;4944311;28;20229;-65
2022/11/08 04:49:55;;;;;;;1.33;1.33;;;;;;;;;;4945733;28;20632;-65
2022/11/08 04:52:21;;;;;;;1.30;1.30;;;;;;;;;;4944954;28;20360;-65
2022/11/08 04:54:47;;;;;;;1.20;1.20;;;;;;;;;;4943274;28;20249;-65
2022/11/08 04:57:13;;;;;;;1.27;1.27;;;;;;;;;;4942758;28;20951;-65
2022/11/08 04:59:38;;;;;;;1.27;1.27;;;;;;;;;;4933918;28;20237;-66
2022/11/08 05:02:04;;;;;;;1.20;1.20;;;;;;;;;;4935121;28;20230;-66
2022/11/08 05:04:30;;;;;;;1.40;1.40;;;;;;;;;;4931421;28;20290;-65
2022/11/08 05:06:56;;;;;;;1.20;1.20;;;;;;;;;;4955648;28;20222;-65
2022/11/08 05:09:22;;;;;;;1.40;1.40;;;;;;;;;;4947324;28;20301;-65
2022/11/08 05:11:48;;;;;;;1.37;1.37;;;;;;;;;;4945497;28;20786;-66
2022/11/08 05:14:14;;;;;;;1.40;1.40;;;;;;;;;;4941906;28;20238;-66
2022/11/08 05:16:40;;;;;;;1.30;1.30;;;;;;;;;;4953203;28;20227;-65
2022/11/08 05:19:06;;;;;;;1.60;1.60;;;;;;;;;;4940413;28;21397;-64
2022/11/08 05:24:16;;;;;;;1.30;1.30;;;;;;;;;;4942026;28;20555;-66
2022/11/08 05:26:43;;;;;;;1.27;1.27;;;;;;;;;;4946970;28;20214;-66
2022/11/08 05:29:09;;;;;;;1.20;1.20;;;;;;;;;;4941147;28;20257;-64
2022/11/08 05:31:35;;;;;;;1.00;1.00;;;;;;;;;;4954210;28;20758;-65
2022/11/08 05:34:01;;;;;;;1.10;1.10;;;;;;;;;;4940596;28;20226;-65
2022/11/08 05:36:27;;;;;;;1.33;1.33;;;;;;;;;;4945727;28;20230;-66
2022/11/08 05:38:53;;;;;;;1.20;1.20;;;;;;;;;;4935342;28;20237;-65
2022/11/08 05:41:20;;;;;;;1.30;1.30;;;;;;;;;;4939176;28;20360;-65
2022/11/08 05:43:46;;;;;;;1.30;1.30;;;;;;;;;;4937960;28;20686;-65
2022/11/08 05:46:12;;;;;;;1.10;1.10;;;;;;;;;;4947337;28;23119;-65
2022/11/08 05:48:38;;;;;;;1.33;1.33;;;;;;;;;;4948986;28;20237;-65
2022/11/08 05:51:04;;;;;;;1.20;1.20;;;;;;;;;;4940552;28;20276;-66
2022/11/08 05:53:30;;;;;;;1.40;1.40;;;;;;;;;;4935740;28;20895;-66
2022/11/08 05:56:00;;;;;;;1.10;1.10;;;;;;;;;;4943417;28;20222;-65
2022/11/08 05:58:26;;;;;;;1.10;1.10;;;;;;;;;;4951235;28;20277;-65
2022/11/08 06:00:58;;;;;;;1.20;1.20;;;;;;;;;;4922910;28;20283;-65
2022/11/08 06:03:24;;;;;;;1.30;1.30;;;;;;;;;;4959430;23;20254;-65
2022/11/08 06:05:50;;;;;;;1.40;1.40;;;;;;;;;;4948645;28;20281;-64
2022/11/08 06:08:16;;;;;;;1.60;1.60;;;;;;;;;;4957759;28;20651;-64
2022/11/08 06:10:42;;;;;;;1.30;1.30;;;;;;;;;;4948548;28;20319;-65
2022/11/08 06:13:08;;;;;;;1.30;1.30;;;;;;;;;;4952287;28;20277;-64
2022/11/08 06:15:34;;;;;;;1.40;1.40;;;;;;;;;;4956533;28;20234;-65
2022/11/08 06:18:03;;;;;;;1.20;1.20;;;;;;;;;;4946683;28;20224;-65
2022/11/08 06:20:29;;;;;;;1.23;1.23;;;;;;;;;;4958629;28;20222;-65
2022/11/08 06:22:55;;;;;;;1.30;1.30;;;;;;;;;;4968548;28;20311;-67
2022/11/08 06:25:21;;;;;;;1.30;1.30;;;;;;;;;;4963561;28;20917;-68
2022/11/08 06:27:47;;;;;;;1.33;1.33;;;;;;;;;;4970268;28;20225;-68
2022/11/08 06:30:13;;;;;;;1.20;1.20;;;;;;;;;;4960013;28;20588;-69
2022/11/08 06:32:39;;;;;;;1.60;1.60;;;;;;;;;;4958283;28;20233;-69
2022/11/08 06:35:05;;;;;;;1.20;1.20;;;;;;;;;;4960934;28;20230;-69
2022/11/08 06:37:31;;;;;;;1.20;1.20;;;;;;;;;;4946880;28;20226;-68
2022/11/08 06:39:58;;;;;;;1.20;1.20;;;;;;;;;;4941305;28;20234;-68
2022/11/08 06:42:24;;;;;;;1.20;1.20;;;;;;;;;;4959511;28;20782;-67
2022/11/08 06:44:50;;;;;;;1.30;1.30;;;;;;;;;;4954522;28;20243;-69
2022/11/08 06:47:16;;;;;;;1.27;1.27;;;;;;;;;;4964986;28;20214;-68
2022/11/08 06:49:42;;;;;;;1.00;1.00;;;;;;;;;;4956979;28;20234;-69
2022/11/08 06:52:07;;;;;;;1.10;1.10;;;;;;;;;;4958635;28;20226;-68
2022/11/08 06:54:33;;;;;;;1.30;1.30;;;;;;;;;;4960839;28;20326;-66
2022/11/08 06:57:00;;;;;;;1.40;1.40;;;;;;;;;;4957244;28;20221;-68
2022/11/08 06:59:26;;;;;;;1.10;1.10;;;;;;;;;;4958940;28;20791;-69
2022/11/08 07:01:52;;;;;;;1.33;1.33;;;;;;;;;;4961955;28;20216;-69
2022/11/08 07:04:21;;;;;;;1.10;1.10;;;;;;;;;;4985428;28;20263;-69
2022/11/08 07:06:47;;;;;;;1.10;1.10;;;;;;;;;;4966623;28;20340;-69
2022/11/08 07:09:13;;;;;;;1.30;1.30;;;;;;;;;;4976515;28;20595;-69
2022/11/08 07:11:39;;;;;;;1.10;1.10;;;;;;;;;;4972778;28;20230;-69
2022/11/08 07:14:05;;;;;;;1.23;1.23;;;;;;;;;;4983586;28;20857;-68
2022/11/08 07:16:31;;;;;;;1.10;1.10;;;;;;;;;;4983846;28;20225;-68
2022/11/08 07:18:57;;;;;;;1.40;1.40;;;;;;;;;;4991254;28;20742;-68
2022/11/08 07:21:23;;;;;;;1.27;1.27;;;;;;;;;;4979226;28;20791;-69
2022/11/08 07:23:49;;;;;;;1.10;1.10;;;;;;;;;;4963772;28;20272;-68
2022/11/08 07:26:15;;;;;;;1.20;1.20;;;;;;;;;;4988441;28;20280;-69
2022/11/08 07:28:40;;;;;;;1.30;1.30;;;;;;;;;;4988693;28;21580;-69
2022/11/08 07:31:06;;;;;;;1.10;1.10;;;;;;;;;;4985667;28;20266;-69
2022/11/08 07:33:32;;;;;;;1.27;1.27;;;;;;;;;;4983041;28;20217;-65
2022/11/08 07:35:58;;;;;;;1.10;1.10;;;;;;;;;;4956753;28;20229;-69
2022/11/08 07:38:25;;;;;;;1.20;1.20;;;;;;;;;;4983703;28;20648;-69
2022/11/08 07:40:51;;;;;;;1.20;1.20;;;;;;;;;;4990477;28;20279;-68
2022/11/08 07:43:17;;;;;;;1.00;1.00;;;;;;;;;;4986418;28;20641;-68
2022/11/08 07:45:43;;;;;;;1.10;1.10;;;;;;;;;;4994434;28;20223;-69
2022/11/08 07:48:10;;;;;;;1.10;1.10;;;;;;;;;;4990406;28;20228;-69
2022/11/08 07:50:36;;;;;;;1.20;1.20;;;;;;;;;;4965230;28;20264;-69
2022/11/08 07:53:02;;;;;;;1.20;1.20;;;;;;;;;;4987957;28;20368;-67
2022/11/08 07:55:28;;;;;;;1.20;1.20;;;;;;;;;;4958217;28;20296;-68
2022/11/08 07:58:00;;;;;;;1.20;1.20;;;;;;;;;;4988177;28;20228;-70
2022/11/08 08:00:26;;;;;;;1.23;1.23;;;;;;;;;;4986249;28;20221;-69
2022/11/08 08:02:56;;;;;;;1.00;1.00;;;;;;;;;;4983689;28;20225;-69
2022/11/08 08:05:22;;;;;;;1.13;1.13;;;;;;;;;;4990066;28;20332;-69
2022/11/08 08:07:48;;;;;;;1.10;1.10;;;;;;;;;;4987725;28;20245;-69
2022/11/08 08:10:14;;;;;;;1.13;1.13;;;;;;;;;;4980635;28;20681;-67
2022/11/08 08:12:40;;;;;;;1.20;1.20;;;;;;;;;;4985981;28;20229;-69
2022/11/08 08:15:07;;;;;;;1.10;1.10;;;;;;;;;;4977661;28;20229;-68
2022/11/08 08:17:33;;;;;;;1.00;1.00;;;;;;;;;;4976699;28;21688;-68
2022/11/08 08:19:58;;;;;;;1.10;1.10;;;;;;;;;;4973692;28;20267;-67
2022/11/08 08:22:24;;;;;;;1.10;1.10;;;;;;;;;;4989121;28;20300;-69
2022/11/08 08:24:50;;;;;;;1.30;1.30;;;;;;;;;;4969423;28;20250;-66
2022/11/08 08:27:16;;;;;;;1.00;1.00;;;;;;;;;;4980426;28;20716;-69
2022/11/08 08:29:42;;;;;;;1.17;1.17;;;;;;;;;;4978030;28;20319;-69
2022/11/08 08:32:08;;;;;;;1.03;1.03;;;;;;;;;;4980602;28;20327;-69
2022/11/08 08:34:34;;;;;;;1.10;1.10;;;;;;;;;;4989687;28;20229;-68
2022/11/08 08:37:00;;;;;;;1.27;1.27;;;;;;;;;;4989982;28;20224;-68
2022/11/08 08:39:26;;;;;;;1.20;1.20;;;;;;;;;;4982277;28;20225;-68
2022/11/08 08:41:52;;;;;;;1.07;1.07;;;;;;;;;;4987854;28;20699;-69
2022/11/08 08:44:18;;;;;;;1.00;1.00;;;;;;;;;;4981415;28;20225;-68
2022/11/08 08:46:44;;;;;;;1.00;1.00;;;;;;;;;;4976814;28;20697;-69
2022/11/08 08:49:10;;;;;;;1.20;1.20;;;;;;;;;;4974229;28;20220;-68
2022/11/08 08:51:36;;;;;;;1.00;1.00;;;;;;;;;;4974768;28;20233;-69
2022/11/08 08:54:02;;;;;;;1.07;1.07;;;;;;;;;;4971142;28;20232;-68
2022/11/08 08:56:28;;;;;;;1.10;1.10;;;;;;;;;;4982987;28;20309;-68
2022/11/08 08:58:54;;;;;;;1.20;1.20;;;;;;;;;;4983507;28;21088;-69
2022/11/08 09:01:19;;;;;;;1.10;1.10;;;;;;;;;;4983597;28;20228;-68
2022/11/08 09:03:45;;;;;;;1.10;1.10;;;;;;;;;;4957158;28;20246;-68
2022/11/08 09:06:11;;;;;;;0.90;0.90;;;;;;;;;;4978498;28;20233;-68
2022/11/08 09:08:37;;;;;;;1.03;1.03;;;;;;;;;;4979968;28;20234;-68
2022/11/08 09:11:03;;;;;;;1.10;1.10;;;;;;;;;;4995016;28;20233;-67
2022/11/08 09:13:29;;;;;;;1.00;1.00;;;;;;;;;;4979623;28;20222;-68
2022/11/08 09:15:55;;;;;;;1.20;1.20;;;;;;;;;;4963140;28;20337;-68
2022/11/08 09:18:21;;;;;;;0.90;0.90;;;;;;;;;;4989655;28;20697;-69
2022/11/08 09:20:47;;;;;;;0.90;0.90;;;;;;;;;;4989469;28;20250;-68
2022/11/08 09:23:15;;;;;;;1.00;1.00;;;;;;;;;;4986477;28;20710;-66
2022/11/08 09:25:41;;;;;;;0.90;0.90;;;;;;;;;;4972334;28;20264;-69
2022/11/08 09:28:08;;;;;;;0.90;0.90;;;;;;;;;;4986528;28;20304;-68
2022/11/08 09:30:34;;;;;;;0.90;0.90;;;;;;;;;;4988658;28;20619;-68
2022/11/08 09:33:00;;;;;;;1.10;1.10;;;;;;;;;;4993482;28;20218;-68
2022/11/08 09:35:26;;;;;;;1.10;1.10;;;;;;;;;;4992254;28;20229;-68
2022/11/08 09:37:53;;;;;;;1.10;1.10;;;;;;;;;;4986931;28;20213;-68
2022/11/08 09:40:44;;;;;;;1.10;1.10;;;;;;;;;;4984017;28;20268;-69
2022/11/08 09:43:19;;;;;;;1.20;1.20;;;;;;;;;;4978218;28;20260;-69
2022/11/08 09:45:45;;;;;;;1.00;1.00;;;;;;;;;;4946458;28;20315;-66
2022/11/08 09:48:16;;;;;;;1.10;1.10;;;;;;;;;;4974442;28;20224;-68
2022/11/08 09:50:43;;;;;;;1.10;1.10;;;;;;;;;;4987388;28;20720;-69
2022/11/08 09:53:11;;;;;;;1.00;1.00;;;;;;;;;;4985660;28;20340;-69
2022/11/08 09:56:01;;;;;;;1.10;1.10;;;;;;;;;;4984635;28;20226;-69
2022/11/08 09:58:34;;;;;;;1.20;1.20;;;;;;;;;;4980371;28;20594;-69
2022/11/08 10:01:00;;;;;;;0.93;0.93;;;;;;;;;;4968249;28;20359;-67
2022/11/08 10:03:26;;;;;;;0.80;0.80;;;;;;;;;;4960819;28;20234;-68
2022/11/08 10:05:58;;;;;;;1.30;1.30;;;;;;;;;;4975563;28;20237;-66
2022/11/08 10:08:26;;;;;;;1.10;1.10;;;;;;;;;;4991708;28;20739;-68
2022/11/08 10:10:56;;;;;;;1.20;1.20;;;;;;;;;;4967199;28;20243;-67
2022/11/08 10:13:26;;;;;;;0.90;0.90;;;;;;;;;;4955855;28;20229;-68
2022/11/08 10:15:59;;;;;;;0.90;0.90;;;;;;;;;;4962873;28;20229;-68
2022/11/08 10:18:31;;;;;;;1.13;1.13;;;;;;;;;;4957349;28;20317;-69
2022/11/08 10:21:16;;;;;;;1.10;1.10;;;;;;;;;;4952291;28;20234;-68
2022/11/08 10:23:43;;;;;;;1.00;1.00;;;;;;;;;;4961307;28;20338;-68
2022/11/08 10:26:12;;;;;;;1.20;1.20;;;;;;;;;;4951193;28;20219;-68
2022/11/08 10:28:58;;;;;;;1.20;1.20;;;;;;;;;;4954945;28;20265;-68
2022/11/08 10:31:26;;;;;;;1.00;1.00;;;;;;;;;;4959878;28;20234;-68
2022/11/08 10:33:55;;;;;;;1.13;1.13;;;;;;;;;;4953711;28;20723;-69
2022/11/08 10:36:28;;;;;;;1.00;1.00;;;;;;;;;;4954907;28;20230;-67
2022/11/08 10:39:02;;;;;;;0.90;0.90;;;;;;;;;;4959736;28;20225;-68
2022/11/08 10:41:39;;;;;;;1.10;1.10;;;;;;;;;;4952446;28;20231;-68
2022/11/08 10:44:06;;;;;;;1.30;1.30;;;;;;;;;;4958210;28;21455;-69
2022/11/08 10:46:45;;;;;;;1.10;1.10;;;;;;;;;;4948188;28;20257;-66
2022/11/08 10:49:18;;;;;;;1.00;1.00;;;;;;;;;;4954322;28;20229;-69
2022/11/08 10:51:44;;;;;;;1.10;1.10;;;;;;;;;;4964616;28;20264;-69
2022/11/08 10:54:29;;;;;;;1.60;1.60;;;;;;;;;;4952951;28;20245;-69
2022/11/08 10:56:55;;;;;;;0.70;0.70;;;;;;;;;;4961724;28;20809;-67
2022/11/08 10:59:28;;;;;;;0.90;0.90;;;;;;;;;;4945121;28;20227;-67
2022/11/08 11:01:54;;;;;;;1.20;1.20;;;;;;;;;;4930636;28;21403;-69
2022/11/08 11:04:24;;;;;;;1.30;1.30;;;;;;;;;;4951478;28;20720;-67
2022/11/08 11:06:50;;;;;;;1.10;1.10;;;;;;;;;;4965581;28;20226;-68
2022/11/08 11:09:20;;;;;;;1.97;1.87;;;;;;;;;;4968716;28;20229;-68
2022/11/08 11:11:45;;;;;;;1.10;1.10;;;;;;;;;;4975447;28;20824;-68
2022/11/08 11:14:12;;;;;;;1.20;1.20;;;;;;;;;;4975022;28;20213;-68
2022/11/08 11:16:38;;;;;;;1.00;1.00;;;;;;;;;;4955640;28;20249;-68
2022/11/08 11:19:05;;;;;;;1.00;1.00;;;;;;;;;;4963484;28;20317;-68
2022/11/08 11:21:37;;;;;;;0.80;0.80;;;;;;;;;;4970138;28;20700;-67
2022/11/08 11:24:19;;;;;;;1.20;1.20;;;;;;;;;;4958818;28;20229;-67
2022/11/08 11:26:45;;;;;;;0.70;0.70;;;;;;;;;;4940892;28;20251;-68
2022/11/08 11:29:15;;;;;;;0.70;0.70;;;;;;;;;;4967882;28;20583;-67
2022/11/08 11:31:49;;;;;;;0.80;0.80;;;;;;;;;;4964251;28;20241;-67
2022/11/08 11:34:18;;;;;;;1.10;1.10;;;;;;;;;;4960520;28;20224;-66
2022/11/08 11:36:47;;;;;;;1.00;1.00;;;;;;;;;;4963694;28;20220;-67
2022/11/08 11:39:16;;;;;;;1.00;1.00;;;;;;;;;;4960875;28;20253;-66
2022/11/08 11:41:42;;;;;;;1.00;1.00;;;;;;;;;;4972012;28;20562;-66
2022/11/08 11:44:18;;;;;;;1.63;1.63;;;;;;;;;;4932950;28;20268;-66
2022/11/08 11:46:44;;;;;;;0.80;0.80;;;;;;;;;;4980581;28;20225;-66
2022/11/08 11:49:13;;;;;;;1.93;1.83;;;;;;;;;;4989110;28;20326;-67
2022/11/08 11:51:39;;;;;;;1.10;1.10;;;;;;;;;;4981974;28;20229;-66
2022/11/08 11:54:06;;;;;;;1.20;1.20;;;;;;;;;;4978327;28;20213;-67
2022/11/08 11:56:39;;;;;;;1.10;1.10;;;;;;;;;;4996184;28;20228;-67
2022/11/08 11:59:15;;;;;;;1.50;1.50;;;;;;;;;;4951912;28;20257;-66
2022/11/08 12:01:41;;;;;;;1.50;1.50;;;;;;;;;;4964917;28;20637;-66
2022/11/08 12:04:20;;;;;;;1.50;1.50;;;;;;;;;;4983951;28;20319;-66
2022/11/08 12:06:52;;;;;;;1.20;1.20;;;;;;;;;;4973062;28;20269;-66
2022/11/08 12:09:18;;;;;;;1.30;1.30;;;;;;;;;;4977893;28;20226;-66
2022/11/08 12:11:46;;;;;;;1.30;1.30;;;;;;;;;;4985419;28;20230;-66
2022/11/08 12:14:12;;;;;;;1.20;1.20;;;;;;;;;;4988069;28;20595;-66
2022/11/08 12:16:56;;;;;;;1.10;1.10;;;;;;;;;;4976387;28;20218;-66
2022/11/08 12:19:40;;;;;;;1.30;1.30;;;;;;;;;;4980118;28;20332;-66
2022/11/08 12:22:13;;;;;;;1.10;1.10;;;;;;;;;;4963311;28;20231;-66
2022/11/08 12:24:59;;;;;;;1.20;1.20;;;;;;;;;;4954551;28;20233;-66
2022/11/08 12:27:28;;;;;;;1.33;1.33;;;;;;;;;;4971055;28;20363;-66
2022/11/08 12:30:01;;;;;;;1.20;1.20;;;;;;;;;;4975680;28;20280;-66
2022/11/08 12:32:31;;;;;;;1.20;1.20;;;;;;;;;;4968362;28;20234;-66
2022/11/08 12:35:02;;;;;;;1.20;1.20;;;;;;;;;;4961651;28;20600;-66
2022/11/08 12:37:46;;;;;;;1.10;1.10;;;;;;;;;;4970196;28;20311;-66
2022/11/08 12:40:25;;;;;;;1.27;1.27;;;;;;;;;;4979889;28;20220;-66
2022/11/08 12:42:57;;;;;;;0.90;0.90;;;;;;;;;;4971775;28;20320;-66
2022/11/08 12:45:39;;;;;;;0.90;0.90;;;;;;;;;;4944871;28;20317;-66
2022/11/08 12:48:24;;;;;;;0.80;0.80;;;;;;;;;;4981664;28;20225;-66
2022/11/08 12:51:08;;;;;;;0.90;0.90;;;;;;;;;;4991891;28;20264;-67
2022/11/08 12:53:47;;;;;;;0.90;0.90;;;;;;;;;;4990276;28;20252;-66
2022/11/08 12:56:14;;;;;;;0.80;0.80;;;;;;;;;;4955803;28;20304;-67
2022/11/08 12:58:44;;;;;;;0.80;0.80;;;;;;;;;;4975226;28;20260;-67
2022/11/08 13:01:17;;;;;;;0.70;0.70;;;;;;;;;;4978251;28;20260;-67
2022/11/08 13:03:44;;;;;;;0.83;0.83;;;;;;;;;;4974805;28;20300;-67
2022/11/08 13:06:29;;;;;;;0.90;0.90;;;;;;;;;;4977459;28;20866;-67
2022/11/08 13:09:13;;;;;;;1.03;1.03;;;;;;;;;;4982741;28;20778;-66
2022/11/08 13:11:42;;;;;;;0.90;0.90;;;;;;;;;;4981489;28;20242;-66
2022/11/08 13:14:15;;;;;;;0.80;0.80;;;;;;;;;;4977850;28;20232;-67
2022/11/08 13:16:42;;;;;;;0.70;0.70;;;;;;;;;;4956396;28;20224;-67
2022/11/08 13:19:13;;;;;;;0.80;0.80;;;;;;;;;;4983363;28;20240;-67
2022/11/08 13:21:39;;;;;;;0.90;0.90;;;;;;;;;;4952630;28;20230;-67
2022/11/08 13:24:05;;;;;;;1.00;1.00;;;;;;;;;;4992082;28;20586;-67
2022/11/08 13:26:41;;;;;;;0.90;0.90;;;;;;;;;;4973837;28;20591;-67
2022/11/08 13:29:16;;;;;;;1.00;1.00;;;;;;;;;;4972969;28;20613;-67
2022/11/08 13:31:44;;;;;;;0.80;0.80;;;;;;;;;;4973242;28;20233;-66
2022/11/08 13:34:16;;;;;;;0.90;0.90;;;;;;;;;;4975199;28;20559;-67
2022/11/08 13:36:42;;;;;;;0.90;0.90;;;;;;;;;;4954790;28;20248;-67
2022/11/08 13:39:17;;;;;;;0.90;0.90;;;;;;;;;;4976094;28;20312;-67
2022/11/08 13:42:01;;;;;;;0.90;0.90;;;;;;;;;;4966005;28;20229;-67
2022/11/08 13:44:48;;;;;;;0.90;0.90;;;;;;;;;;4974790;28;20307;-67
2022/11/08 13:47:35;;;;;;;0.90;0.90;;;;;;;;;;4967173;28;20245;-66
2022/11/08 13:50:21;;;;;;;0.90;0.90;;;;;;;;;;4972453;28;20354;-66
2022/11/08 13:52:47;;;;;;;0.90;0.90;;;;;;;;;;4977362;28;20818;-67
2022/11/08 13:55:31;;;;;;;0.90;0.90;;;;;;;;;;4990222;28;20296;-67
2022/11/08 13:57:59;;;;;;;0.97;0.97;;;;;;;;;;4971876;28;20632;-67
2022/11/08 14:00:35;;;;;;;0.90;0.90;;;;;;;;;;4959636;28;20242;-67
2022/11/08 14:03:00;;;;;;;1.00;1.00;;;;;;;;;;4963967;28;20658;-66
2022/11/08 14:05:27;;;;;;;0.90;0.90;;;;;;;;;;4990756;28;20217;-67
2022/11/08 14:07:55;;;;;;;0.80;0.80;;;;;;;;;;4996670;28;20225;-67
2022/11/08 14:10:24;;;;;;;1.00;1.00;;;;;;;;;;4988184;28;20235;-67
2022/11/08 14:12:55;;;;;;;0.80;0.80;;;;;;;;;;4981706;28;20952;-69
2022/11/08 14:15:30;;;;;;;0.90;0.90;;;;;;;;;;4939964;28;20811;-69
2022/11/08 14:18:06;;;;;;;0.80;0.80;;;;;;;;;;4968813;28;20224;-69
2022/11/08 14:20:34;;;;;;;0.90;0.90;;;;;;;;;;4972349;28;20371;-63
2022/11/08 14:23:22;;;;;;;0.90;0.90;;;;;;;;;;4974520;28;20240;-64
2022/11/08 14:25:48;;;;;;;1.00;1.00;;;;;;;;;;4965621;28;20651;-66
2022/11/08 14:28:27;;;;;;;1.00;1.00;;;;;;;;;;4981786;28;20231;-66
2022/11/08 14:30:53;;;;;;;1.00;1.00;;;;;;;;;;4946710;28;20230;-67
2022/11/08 14:33:20;;;;;;;1.10;1.10;;;;;;;;;;4979015;28;20636;-67
2022/11/08 14:35:53;;;;;;;1.20;1.20;;;;;;;;;;4974814;28;20221;-67
2022/11/08 14:38:19;;;;;;;1.00;1.00;;;;;;;;;;4957414;28;20280;-70
2022/11/08 14:40:49;;;;;;;1.00;1.00;;;;;;;;;;4974115;28;20216;-66
2022/11/08 14:43:15;;;;;;;1.10;1.10;;;;;;;;;;5005061;28;20244;-66
2022/11/08 14:45:41;;;;;;;1.10;1.10;;;;;;;;;;5014576;28;20229;-66
2022/11/08 14:48:10;;;;;;;1.10;1.10;;;;;;;;;;5001822;28;20221;-66
2022/11/08 14:50:36;;;;;;;0.70;0.70;;;;;;;;;;4997758;28;20319;-66
2022/11/08 14:53:34;;;;;;;0.80;0.80;;;;;;;;;;4980273;28;20206;-66
2022/11/08 14:56:08;;;;;;;0.90;0.90;;;;;;;;;;4940809;28;20268;-66
2022/11/08 14:58:33;;;;;;;0.90;0.90;;;;;;;;;;4979971;28;20229;-66
2022/11/08 15:00:59;;;;;;;0.80;0.80;;;;;;;;;;4980045;28;20210;-66
2022/11/08 15:03:26;;;;;;;1.00;1.00;;;;;;;;;;4993433;28;20257;-66
2022/11/08 15:05:56;;;;;;;1.03;1.03;;;;;;;;;;4989669;28;20281;-66
2022/11/08 15:08:25;;;;;;;0.80;0.80;;;;;;;;;;5005798;28;20248;-65
2022/11/08 15:10:51;;;;;;;1.10;1.10;;;;;;;;;;5001351;28;20241;-65